This is the latest recevied weather packets stored in our database for station/object OM1PU-6. If no packets are shown the sender has not sent any weather packets the latest 1 day(s).
| Time | Temp. | Humidity | Pressure | Rain* | Wind** | Luminosity | Snow |
|---|---|---|---|---|---|---|---|
| 1836274189 | 13.33° C | 96% | 1023.3 hPa | 0 mm | 0 m/s | - | - |
| 1836274038 | 13.33° C | 96% | 1023.5 hPa | 0 mm | 0 m/s | - | - |
| 1778046498 | 15° C | 80% | 1021.1 hPa | 0 mm | 0 m/s | - | - |
| 1778045598 | 14.44° C | 81% | 1021 hPa | 0 mm | 0 m/s | - | - |
| 1778044697 | 14.44° C | 82% | 1021 hPa | 0 mm | 0.45 m/s, 169° | - | - |
| 1778043798 | 14.44° C | 82% | 1021 hPa | 0 mm | 0.89 m/s, 215° | - | - |
| 1778042897 | 13.89° C | 84% | 1020.6 hPa | 0 mm | 0 m/s | - | - |
| 1778041997 | 13.33° C | 84% | 1020.7 hPa | 0 mm | 0 m/s | - | - |
| 1778041097 | 13.33° C | 85% | 1020.5 hPa | 0 mm | 0 m/s | - | - |
| 1778040198 | 12.78° C | 86% | 1020.5 hPa | 0 mm | 0 m/s | - | - |
| 1778039298 | 12.78° C | 86% | 1020.6 hPa | 0 mm | 0 m/s | - | - |
| 1778038398 | 13.33° C | 85% | 1020.4 hPa | 0 mm | 0 m/s | - | - |
| 1778037497 | 13.33° C | 85% | 1020.2 hPa | 0 mm | 0 m/s | - | - |
| 1778036597 | 13.33° C | 84% | 1020.3 hPa | 0 mm | 0 m/s | - | - |
| 1778035697 | 13.33° C | 83% | 1020.4 hPa | 0 mm | 0 m/s | - | - |
| 1778034798 | 13.33° C | 83% | 1020 hPa | 0 mm | 0.45 m/s, 181° | - | - |
| 1778033897 | 13.33° C | 83% | 1020.1 hPa | 0 mm | 0 m/s | - | - |
| 1778032998 | 13.33° C | 82% | 1020.2 hPa | 0 mm | 0 m/s | - | - |
| 1778032097 | 13.89° C | 80% | 1020 hPa | 0 mm | 0.45 m/s, 279° | - | - |
| 1778031197 | 14.44° C | 79% | 1019.9 hPa | 0 mm | 0.89 m/s, 265° | - | - |
| 1778030298 | 14.44° C | 78% | 1019.6 hPa | 0 mm | 0.45 m/s, 54° | - | - |
| 1778029397 | 14.44° C | 77% | 1019.6 hPa | 0 mm | 0.45 m/s, 200° | - | - |
| 1778028498 | 14.44° C | 76% | 1019.6 hPa | 0 mm | 1.34 m/s, 266° | - | - |
| 1778027598 | 14.44° C | 76% | 1019.5 hPa | 0 mm | 0.45 m/s, 216° | - | - |
| 1778026697 | 14.44° C | 75% | 1019.4 hPa | 0 mm | 0.89 m/s, 222° | - | - |
* Rain latest 24 hours (hover to see other rain measurements)
** Current wind speed in m/s (hover to see current wind gust speed)